Time;durP1;ratioP1;P1;durP2;ratioP2;P2;SDS_P1;SDS_P2;PMS_P1;PMS_P2;Temp;Humidity;BMP_temperature;BMP_pressure;BME280_temperature;BME280_humidity;BME280_pressure;Samples;Min_cycle;Max_cycle;Signal;HPM_P1;HPM_P2
2021/08/15 00:00:31;;;;;;;;;;;;;;;;;;6194392;28;20537;-77
2021/08/15 00:03:34;;;;;;;;;;;;;;;;;;6198507;28;19921;-76
2021/08/15 00:06:35;;;;;;;;;;;;;;;;;;6198280;28;20064;-76
2021/08/15 00:09:36;;;;;;;;;;;;;;;;;;6199134;28;19965;-75
2021/08/15 00:12:39;;;;;;;;;;;;;;;;;;6197397;28;20015;-79
2021/08/15 00:15:40;;;;;;;;;;;;;;;;;;6188484;28;20027;-76
2021/08/15 00:18:43;;;;;;;;;;;;;;;;;;6199872;28;20051;-76
2021/08/15 00:21:44;;;;;;;;;;;;;;;;;;6195157;28;20229;-76
2021/08/15 00:24:46;;;;;;;;;;;;;;;;;;6206425;28;19930;-75
2021/08/15 00:27:48;;;;;;;;;;;;;;;;;;6192414;28;20297;-76
2021/08/15 00:30:49;;;;;;;;;;;;;;;;;;6194265;28;20052;-76
2021/08/15 00:33:52;;;;;;;;;;;;;;;;;;6199719;28;20060;-76
2021/08/15 00:36:53;;;;;;;;;;;;;;;;;;6191289;28;19928;-76
2021/08/15 00:39:55;;;;;;;;;;;;;;;;;;6203521;28;19936;-76
2021/08/15 00:42:56;;;;;;;;;;;;;;;;;;6193965;28;20032;-79
2021/08/15 00:45:57;;;;;;;;;;;;;;;;;;6192038;28;20008;-75
2021/08/15 00:49:00;;;;;;;;;;;;;;;;;;6189393;28;19933;-76
2021/08/15 00:52:01;;;;;;;;;;;;;;;;;;6194144;28;19984;-75
2021/08/15 00:55:03;;;;;;;;;;;;;;;;;;6206133;28;19956;-75
2021/08/15 00:58:05;;;;;;;;;;;;;;;;;;6194439;28;19975;-81
2021/08/15 01:01:07;;;;;;;;;;;;;;;;;;6197242;28;19944;-75
2021/08/15 01:04:09;;;;;;;;;;;;;;;;;;6196080;28;19922;-76
2021/08/15 01:07:11;;;;;;;;;;;;;;;;;;6201023;28;20344;-75
2021/08/15 01:10:12;;;;;;;;;;;;;;;;;;6203561;28;19922;-80
2021/08/15 01:13:14;;;;;;;;;;;;;;;;;;6201521;28;20057;-76
2021/08/15 01:16:15;;;;;;;;;;;;;;;;;;6186315;28;19979;-75
2021/08/15 01:19:18;;;;;;;;;;;;;;;;;;6197421;28;19976;-77
2021/08/15 01:22:19;;;;;;;;;;;;;;;;;;6189126;28;20008;-76
2021/08/15 01:25:20;;;;;;;;;;;;;;;;;;6194409;28;20020;-81
2021/08/15 01:28:23;;;;;;;;;;;;;;;;;;6198271;28;20456;-76
2021/08/15 01:31:25;;;;;;;;;;;;;;;;;;6179317;28;20328;-71
2021/08/15 01:34:26;;;;;;;;;;;;;;;;;;6191887;28;19922;-71
2021/08/15 01:37:28;;;;;;;;;;;;;;;;;;6183030;28;19929;-71
2021/08/15 01:40:29;;;;;;;;;;;;;;;;;;6189907;28;19974;-76
2021/08/15 01:43:34;;;;;;;;;;;;;;;;;;6201469;28;19926;-71
2021/08/15 01:46:35;;;;;;;;;;;;;;;;;;6172446;28;20080;-72
2021/08/15 01:49:36;;;;;;;;;;;;;;;;;;6194995;28;19929;-71
2021/08/15 01:52:38;;;;;;;;;;;;;;;;;;6189032;28;19925;-72
2021/08/15 01:55:39;;;;;;;;;;;;;;;;;;6188190;28;19983;-71
2021/08/15 01:58:42;;;;;;;;;;;;;;;;;;6199754;28;20440;-71
2021/08/15 02:01:44;;;;;;;;;;;;;;;;;;6176950;28;19970;-72
2021/08/15 02:04:45;;;;;;;;;;;;;;;;;;6198769;28;20057;-71
2021/08/15 02:07:47;;;;;;;;;;;;;;;;;;6185258;28;20267;-72
2021/08/15 02:10:48;;;;;;;;;;;;;;;;;;6193140;28;20051;-76
2021/08/15 02:13:51;;;;;;;;;;;;;;;;;;6198935;28;19929;-71
2021/08/15 02:16:52;;;;;;;;;;;;;;;;;;6183233;28;20259;-71
2021/08/15 02:19:53;;;;;;;;;;;;;;;;;;6208516;28;20664;-72
2021/08/15 02:22:55;;;;;;;;;;;;;;;;;;6192180;28;20060;-72
2021/08/15 02:25:56;;;;;;;;;;;;;;;;;;6193009;28;20072;-75
2021/08/15 02:28:59;;;;;;;;;;;;;;;;;;6201780;28;19975;-72
2021/08/15 02:32:00;;;;;;;;;;;;;;;;;;6180938;28;19925;-74
2021/08/15 02:35:02;;;;;;;;;;;;;;;;;;6197943;28;20000;-76
2021/08/15 02:38:03;;;;;;;;;;;;;;;;;;6194486;28;19922;-71
2021/08/15 02:41:05;;;;;;;;;;;;;;;;;;6191460;28;19975;-71
2021/08/15 02:44:08;;;;;;;;;;;;;;;;;;6197486;28;20063;-71
2021/08/15 02:47:09;;;;;;;;;;;;;;;;;;6177271;28;20397;-73
2021/08/15 02:50:11;;;;;;;;;;;;;;;;;;6193988;28;20388;-75
2021/08/15 02:53:13;;;;;;;;;;;;;;;;;;6192131;28;19926;-75
2021/08/15 02:56:14;;;;;;;;;;;;;;;;;;6193768;28;19925;-72
2021/08/15 02:59:17;;;;;;;;;;;;;;;;;;6200537;28;19975;-72
2021/08/15 03:02:19;;;;;;;;;;;;;;;;;;6187839;28;19921;-72
2021/08/15 03:05:22;;;;;;;;;;;;;;;;;;6187736;28;20048;-76
2021/08/15 03:08:23;;;;;;;;;;;;;;;;;;6195333;28;19929;-71
2021/08/15 03:11:24;;;;;;;;;;;;;;;;;;6192225;28;20027;-71
2021/08/15 03:14:27;;;;;;;;;;;;;;;;;;6199167;28;20033;-71
2021/08/15 03:17:28;;;;;;;;;;;;;;;;;;6184414;28;20387;-72
2021/08/15 03:20:30;;;;;;;;;;;;;;;;;;6184623;28;19922;-72
2021/08/15 03:23:31;;;;;;;;;;;;;;;;;;6199428;28;20348;-72
2021/08/15 03:26:32;;;;;;;;;;;;;;;;;;6186971;28;19925;-71
2021/08/15 03:29:35;;;;;;;;;;;;;;;;;;6202505;28;19926;-71
2021/08/15 03:32:37;;;;;;;;;;;;;;;;;;6186106;28;21217;-72
2021/08/15 03:35:38;;;;;;;;;;;;;;;;;;6188714;28;19921;-71
2021/08/15 03:38:39;;;;;;;;;;;;;;;;;;6199134;28;20008;-71
2021/08/15 03:41:41;;;;;;;;;;;;;;;;;;6187954;28;20016;-71
2021/08/15 03:44:43;;;;;;;;;;;;;;;;;;6202612;28;20365;-72
2021/08/15 03:47:45;;;;;;;;;;;;;;;;;;6183344;28;20012;-76
2021/08/15 03:50:47;;;;;;;;;;;;;;;;;;6183851;28;19999;-72
2021/08/15 03:53:48;;;;;;;;;;;;;;;;;;6198836;28;20044;-72
2021/08/15 03:56:49;;;;;;;;;;;;;;;;;;6188208;28;19933;-72
2021/08/15 03:59:53;;;;;;;;;;;;;;;;;;6198308;28;20012;-71
2021/08/15 04:02:54;;;;;;;;;;;;;;;;;;6174799;28;19922;-74
2021/08/15 04:05:57;;;;;;;;;;;;;;;;;;6189068;28;20016;-74
2021/08/15 04:08:59;;;;;;;;;;;;;;;;;;6194550;28;19932;-71
2021/08/15 04:12:00;;;;;;;;;;;;;;;;;;6162042;28;19944;-71
2021/08/15 04:15:03;;;;;;;;;;;;;;;;;;6198011;28;20524;-71
2021/08/15 04:18:05;;;;;;;;;;;;;;;;;;6179950;28;19929;-71
2021/08/15 04:21:06;;;;;;;;;;;;;;;;;;6184852;28;19930;-71
2021/08/15 04:24:08;;;;;;;;;;;;;;;;;;6200301;28;19928;-72
2021/08/15 04:27:09;;;;;;;;;;;;;;;;;;6185634;28;19929;-71
2021/08/15 04:30:12;;;;;;;;;;;;;;;;;;6193194;28;19976;-75
2021/08/15 04:33:18;;;;;;;;;;;;;;;;;;6188650;28;19986;-71
2021/08/15 04:36:19;;;;;;;;;;;;;;;;;;6183091;28;20017;-73
2021/08/15 04:39:20;;;;;;;;;;;;;;;;;;6193579;28;19921;-71
2021/08/15 04:42:22;;;;;;;;;;;;;;;;;;6188688;28;19976;-72
2021/08/15 04:45:24;;;;;;;;;;;;;;;;;;6189441;28;20044;-76
2021/08/15 04:48:26;;;;;;;;;;;;;;;;;;6192144;28;19928;-71
2021/08/15 04:51:27;;;;;;;;;;;;;;;;;;6190570;28;20424;-72
2021/08/15 04:54:29;;;;;;;;;;;;;;;;;;6199151;28;19930;-76
2021/08/15 04:57:30;;;;;;;;;;;;;;;;;;6194064;28;19980;-71
2021/08/15 05:00:33;;;;;;;;;;;;;;;;;;6189862;28;20069;-76
2021/08/15 05:03:35;;;;;;;;;;;;;;;;;;6192960;28;19926;-73
2021/08/15 05:06:37;;;;;;;;;;;;;;;;;;6199616;28;19925;-71
2021/08/15 05:09:38;;;;;;;;;;;;;;;;;;6201239;28;19957;-71
2021/08/15 05:12:40;;;;;;;;;;;;;;;;;;6191824;28;19929;-73
2021/08/15 05:15:42;;;;;;;;;;;;;;;;;;6190549;28;19929;-71
2021/08/15 05:18:44;;;;;;;;;;;;;;;;;;6203875;28;19925;-75
2021/08/15 05:25:59;;;;;;;11.30;7.57;;;;;;;;;;6254388;27;20221;-71
2021/08/15 05:29:00;;;;;;;;;;;;;;;;;;6275383;28;20110;-70
2021/08/15 05:32:02;;;;;;;10.57;7.50;;;;;;;;;;6226395;28;19999;-71
2021/08/15 05:35:05;;;;;;;12.43;7.72;;;;;;;;;;6244182;28;20110;-70
2021/08/15 05:38:06;;;;;;;13.23;8.00;;;;;;;;;;6247651;28;20182;-70
2021/08/15 05:41:09;;;;;;;12.98;7.53;;;;;;;;;;6246320;28;20067;-72
2021/08/15 05:44:11;;;;;;;10.73;7.82;;;;;;;;;;6276581;28;20254;-71
2021/08/15 05:47:12;;;;;;;13.27;8.23;;;;;;;;;;6244107;28;20045;-71
2021/08/15 05:50:14;;;;;;;10.15;7.30;;;;;;;;;;6264297;28;20105;-73
2021/08/15 05:53:15;;;;;;;13.15;7.70;;;;;;;;;;6266877;28;20041;-69
2021/08/15 05:56:18;;;;;;;14.00;7.07;;;;;;;;;;6260626;28;20690;-69
2021/08/15 05:59:20;;;;;;;11.15;7.15;;;;;;;;;;6275553;28;20113;-69
2021/08/15 06:02:21;;;;;;;12.23;6.90;;;;;;;;;;6243937;28;20448;-70
2021/08/15 06:05:23;;;;;;;12.73;7.32;;;;;;;;;;6257020;28;20106;-68
2021/08/15 06:08:24;;;;;;;10.30;7.20;;;;;;;;;;6270677;28;20139;-69
2021/08/15 06:11:27;;;;;;;11.50;6.28;;;;;;;;;;6260596;28;20052;-69
2021/08/15 06:14:29;;;;;;;13.32;6.78;;;;;;;;;;6274385;28;20988;-69
2021/08/15 06:17:31;;;;;;;12.73;6.72;;;;;;;;;;6241046;28;20492;-69
2021/08/15 06:20:32;;;;;;;12.88;7.40;;;;;;;;;;6258714;28;20048;-69
2021/08/15 06:26:33;;;;;;;10.45;7.07;;;;;;;;;;6316422;27;20126;-68
2021/08/15 06:29:34;;;;;;;;;;;;;;;;;;6305424;28;20411;-71
2021/08/15 06:32:44;;;;;;;13.07;7.32;;;;;;;;;;6281882;28;20336;-71
2021/08/15 06:35:46;;;;;;;11.95;7.20;;;;;;;;;;6288470;28;20142;-71
2021/08/15 06:38:47;;;;;;;13.27;6.80;;;;;;;;;;6300024;28;20412;-71
2021/08/15 06:41:50;;;;;;;13.63;7.10;;;;;;;;;;6287051;28;20048;-71
2021/08/15 06:44:52;;;;;;;;;;;;;;;;;;6301757;28;20101;-71
2021/08/15 06:47:53;;;;;;;13.45;7.25;;;;;;;;;;6284407;28;19955;-72
2021/08/15 06:50:58;;;;;;;8.85;6.53;;;;;;;;;;6290440;28;20194;-71
2021/08/15 06:54:00;;;;;;;13.00;6.78;;;;;;;;;;6317512;28;20114;-71
2021/08/15 06:57:03;;;;;;;16.23;7.57;;;;;;;;;;6305608;28;20036;-71
2021/08/15 07:00:07;;;;;;;10.13;7.00;;;;;;;;;;6315205;28;20040;-71
2021/08/15 07:03:08;;;;;;;11.20;6.95;;;;;;;;;;6285423;28;20488;-71
2021/08/15 07:06:10;;;;;;;10.65;6.40;;;;;;;;;;6288062;28;20036;-71
2021/08/15 07:09:12;;;;;;;10.18;7.82;;;;;;;;;;6299233;28;20048;-71
2021/08/15 07:12:15;;;;;;;12.80;8.32;;;;;;;;;;6292980;28;20044;-71
2021/08/15 07:15:16;;;;;;;12.65;7.57;;;;;;;;;;6293999;28;20052;-71
2021/08/15 07:18:18;;;;;;;10.60;7.47;;;;;;;;;;6287177;28;20438;-71
2021/08/15 07:21:20;;;;;;;14.15;7.68;;;;;;;;;;6283106;28;20115;-71
2021/08/15 07:24:22;;;;;;;17.10;7.70;;;;;;;;;;6301046;28;20060;-71
2021/08/15 07:27:25;;;;;;;10.35;7.63;;;;;;;;;;6286659;28;20062;-71
2021/08/15 07:30:27;;;;;;;10.30;7.82;;;;;;;;;;6284851;28;20056;-71
2021/08/15 07:33:28;;;;;;;10.65;7.60;;;;;;;;;;6289385;28;20055;-71
2021/08/15 07:36:30;;;;;;;10.63;8.07;;;;;;;;;;6275362;28;20507;-71
2021/08/15 07:39:31;;;;;;;11.73;7.82;;;;;;;;;;6281356;28;20044;-70
2021/08/15 07:42:34;;;;;;;14.38;7.55;;;;;;;;;;6271143;28;20040;-70
2021/08/15 07:45:36;;;;;;;14.00;7.93;;;;;;;;;;6291196;28;20047;-72
2021/08/15 07:48:38;;;;;;;11.68;7.60;;;;;;;;;;6301201;28;20086;-72
2021/08/15 07:51:39;;;;;;;9.13;7.05;;;;;;;;;;6293463;28;20100;-71
2021/08/15 07:54:41;;;;;;;13.15;7.75;;;;;;;;;;6307805;28;20147;-72
2021/08/15 07:57:44;;;;;;;11.18;7.68;;;;;;;;;;6294426;28;20048;-72
2021/08/15 08:00:45;;;;;;;9.50;6.75;;;;;;;;;;6279844;28;20056;-69
2021/08/15 08:03:47;;;;;;;10.30;7.03;;;;;;;;;;6299328;28;20044;-71
2021/08/15 08:06:50;;;;;;;11.23;7.18;;;;;;;;;;6293012;28;20047;-75
2021/08/15 08:09:52;;;;;;;9.63;6.80;;;;;;;;;;6307144;28;20539;-71
2021/08/15 08:12:55;;;;;;;9.60;7.70;;;;;;;;;;6297310;28;20189;-71
2021/08/15 08:15:57;;;;;;;12.40;7.80;;;;;;;;;;6282115;28;20135;-70
2021/08/15 08:18:58;;;;;;;9.07;7.27;;;;;;;;;;6300395;28;20535;-76
2021/08/15 08:22:00;;;;;;;12.93;7.13;;;;;;;;;;6296834;28;20154;-70
2021/08/15 08:25:02;;;;;;;9.47;7.17;;;;;;;;;;6308239;28;20048;-70
2021/08/15 08:28:05;;;;;;;10.40;7.68;;;;;;;;;;6296791;28;20125;-71
2021/08/15 08:31:07;;;;;;;11.70;7.70;;;;;;;;;;6280782;28;20070;-72
2021/08/15 08:34:09;;;;;;;10.13;6.90;;;;;;;;;;6300891;28;20048;-71
2021/08/15 08:37:11;;;;;;;9.43;7.13;;;;;;;;;;6295278;28;20649;-71
2021/08/15 08:40:14;;;;;;;10.80;6.85;;;;;;;;;;6300476;28;20127;-73
2021/08/15 08:43:19;;;;;;;10.93;7.38;;;;;;;;;;6302653;28;20157;-73
2021/08/15 08:46:21;;;;;;;10.77;6.45;;;;;;;;;;6292347;28;20450;-71
2021/08/15 08:49:23;;;;;;;;;;;;;;;;;;6301046;28;20125;-71
2021/08/15 08:52:29;;;;;;;11.43;7.22;;;;;;;;;;6292992;28;20112;-73
2021/08/15 08:55:30;;;;;;;11.35;7.30;;;;;;;;;;6298004;28;20040;-71
2021/08/15 08:58:33;;;;;;;10.65;7.40;;;;;;;;;;6308452;28;20161;-71
2021/08/15 09:01:36;;;;;;;9.70;7.20;;;;;;;;;;6287511;28;20152;-72
2021/08/15 09:04:37;;;;;;;11.20;7.03;;;;;;;;;;6309859;28;20400;-71
2021/08/15 09:07:41;;;;;;;8.70;6.65;;;;;;;;;;6300683;28;20127;-71
2021/08/15 09:10:43;;;;;;;10.43;7.55;;;;;;;;;;6297330;28;20736;-72
2021/08/15 09:13:59;;;;;;;11.32;7.30;;;;;;;;;;6306291;28;20069;-71
2021/08/15 09:17:02;;;;;;;8.88;7.20;;;;;;;;;;6281587;28;20556;-74
2021/08/15 09:20:05;;;;;;;10.95;8.20;;;;;;;;;;6300832;28;20078;-74
2021/08/15 09:23:24;;;;;;;11.02;7.50;;;;;;;;;;6296244;28;20046;-72
2021/08/15 09:26:26;;;;;;;9.07;8.15;;;;;;;;;;6293755;28;20476;-71
2021/08/15 09:29:29;;;;;;;15.20;8.18;;;;;;;;;;6303970;28;20058;-71
2021/08/15 09:32:30;;;;;;;12.32;7.57;;;;;;;;;;6286827;28;20443;-71
2021/08/15 09:35:38;;;;;;;15.18;8.13;;;;;;;;;;6290889;28;20055;-71
2021/08/15 09:38:44;;;;;;;10.85;7.75;;;;;;;;;;6305032;28;20069;-71
2021/08/15 09:41:51;;;;;;;12.63;7.95;;;;;;;;;;6288957;28;20055;-71
2021/08/15 09:44:54;;;;;;;13.27;7.78;;;;;;;;;;6305295;28;20036;-74
2021/08/15 09:47:55;;;;;;;11.52;7.80;;;;;;;;;;6280779;28;20055;-72
2021/08/15 09:51:12;;;;;;;10.85;7.50;;;;;;;;;;6267287;28;20143;-74
2021/08/15 09:54:17;;;;;;;12.20;8.35;;;;;;;;;;6289968;28;20456;-80
2021/08/15 09:57:29;;;;;;;11.80;7.80;;;;;;;;;;6299694;28;20047;-75
2021/08/15 10:00:32;;;;;;;14.35;7.47;;;;;;;;;;6293583;28;20174;-77
2021/08/15 10:03:35;;;;;;;9.32;7.57;;;;;;;;;;6298474;28;20182;-78
2021/08/15 10:06:37;;;;;;;12.00;7.47;;;;;;;;;;6295991;28;20110;-74
2021/08/15 10:09:38;;;;;;;;;;;;;;;;;;6305036;28;20571;-74
2021/08/15 10:12:39;;;;;;;9.48;6.88;;;;;;;;;;6297790;28;19923;-73
2021/08/15 10:15:42;;;;;;;10.55;8.82;;;;;;;;;;6293991;28;20052;-75
2021/08/15 10:18:49;;;;;;;10.52;8.20;;;;;;;;;;6303372;28;20044;-73
2021/08/15 10:21:50;;;;;;;12.73;7.30;;;;;;;;;;6297485;28;20085;-74
2021/08/15 10:24:54;;;;;;;9.50;7.43;;;;;;;;;;6301506;28;21136;-74
2021/08/15 10:27:56;;;;;;;13.65;7.25;;;;;;;;;;6293916;28;20044;-77
2021/08/15 10:30:59;;;;;;;;;;;;;;;;;;6290641;28;20401;-78
2021/08/15 10:34:04;;;;;;;13.68;8.20;;;;;;;;;;6302182;28;19928;-73
2021/08/15 10:37:33;;;;;;;9.95;8.00;;;;;;;;;;6294643;28;20048;-74
2021/08/15 10:40:56;;;;;;;12.52;8.70;;;;;;;;;;6296841;28;20636;-76
2021/08/15 10:44:00;;;;;;;15.27;7.55;;;;;;;;;;6305698;28;20051;-78
2021/08/15 10:47:15;;;;;;;10.23;7.65;;;;;;;;;;6287746;28;20052;-74
2021/08/15 10:50:16;;;;;;;8.48;6.93;;;;;;;;;;6293390;28;20440;-73
2021/08/15 10:53:39;;;;;;;10.25;8.77;;;;;;;;;;6300539;28;20043;-74
2021/08/15 10:56:54;;;;;;;11.60;9.25;;;;;;;;;;6294436;28;20063;-74
2021/08/15 10:59:56;;;;;;;10.95;8.18;;;;;;;;;;6303597;28;20132;-76
2021/08/15 11:03:00;;;;;;;9.90;7.93;;;;;;;;;;6288367;28;20980;-74
2021/08/15 11:06:02;;;;;;;14.55;8.63;;;;;;;;;;6290281;28;20044;-74
2021/08/15 11:09:05;;;;;;;11.65;8.65;;;;;;;;;;6305298;28;20047;-74
2021/08/15 11:12:10;;;;;;;13.43;8.55;;;;;;;;;;6299797;28;20047;-74
2021/08/15 11:15:11;;;;;;;12.90;7.05;;;;;;;;;;6304614;28;20081;-76
2021/08/15 11:18:18;;;;;;;8.93;6.80;;;;;;;;;;6299893;28;20527;-78
2021/08/15 11:21:19;;;;;;;10.50;7.80;;;;;;;;;;6303636;28;20055;-74
2021/08/15 11:24:23;;;;;;;10.15;7.88;;;;;;;;;;6308920;28;20146;-73
2021/08/15 11:27:33;;;;;;;10.43;7.55;;;;;;;;;;6302940;28;20048;-75
2021/08/15 11:30:35;;;;;;;11.43;7.53;;;;;;;;;;6275133;28;20260;-74
2021/08/15 11:33:39;;;;;;;9.30;7.80;;;;;;;;;;6283194;28;20183;-74
2021/08/15 11:36:40;;;;;;;10.15;7.10;;;;;;;;;;6277160;28;20159;-75
2021/08/15 11:39:42;;;;;;;8.60;6.65;;;;;;;;;;6285000;28;20105;-74
2021/08/15 11:42:44;;;;;;;7.47;6.50;;;;;;;;;;6278738;28;20045;-74
2021/08/15 11:45:48;;;;;;;7.70;6.32;;;;;;;;;;6293931;28;20044;-74
2021/08/15 11:48:51;;;;;;;8.68;7.28;;;;;;;;;;6279193;28;20049;-74
2021/08/15 11:52:17;;;;;;;8.55;7.65;;;;;;;;;;6276131;28;20049;-75
2021/08/15 11:55:23;;;;;;;8.88;7.95;;;;;;;;;;6273323;28;20137;-74
2021/08/15 11:58:26;;;;;;;9.15;7.30;;;;;;;;;;6277962;28;20047;-75
2021/08/15 12:01:27;;;;;;;7.68;6.93;;;;;;;;;;6256521;28;20561;-75
2021/08/15 12:04:31;;;;;;;7.40;6.65;;;;;;;;;;6297499;28;20136;-75
2021/08/15 12:07:33;;;;;;;7.70;6.90;;;;;;;;;;6279580;28;20562;-74
2021/08/15 12:10:43;;;;;;;12.55;7.43;;;;;;;;;;6275341;28;20049;-74
2021/08/15 12:13:45;;;;;;;7.60;6.72;;;;;;;;;;6307093;28;20239;-75
2021/08/15 12:16:53;;;;;;;9.52;7.00;;;;;;;;;;6285482;28;20056;-76
2021/08/15 12:20:19;;;;;;;8.02;7.25;;;;;;;;;;6307919;28;20186;-75
2021/08/15 12:23:21;;;;;;;11.13;7.32;;;;;;;;;;6301950;28;20040;-74
2021/08/15 12:26:25;;;;;;;9.25;7.25;;;;;;;;;;6304500;28;20040;-74
2021/08/15 12:29:29;;;;;;;10.77;7.03;;;;;;;;;;6311876;28;20173;-75
2021/08/15 12:32:32;;;;;;;10.75;8.10;;;;;;;;;;6286089;28;20571;-74
2021/08/15 12:35:35;;;;;;;9.65;6.75;;;;;;;;;;6300289;28;20044;-77
2021/08/15 12:38:37;;;;;;;9.95;7.07;;;;;;;;;;6313490;28;20048;-75
2021/08/15 12:41:50;;;;;;;10.27;6.93;;;;;;;;;;6282768;28;20057;-74
2021/08/15 12:44:55;;;;;;;7.55;6.85;;;;;;;;;;6286651;28;20523;-75
2021/08/15 12:48:00;;;;;;;12.93;7.70;;;;;;;;;;6264537;28;20093;-74
2021/08/15 12:51:03;;;;;;;9.02;7.78;;;;;;;;;;6287351;28;20163;-74
2021/08/15 12:54:04;;;;;;;11.77;7.25;;;;;;;;;;6285281;28;20467;-74
2021/08/15 12:57:06;;;;;;;9.75;6.80;;;;;;;;;;6275830;28;20061;-75
2021/08/15 13:00:09;;;;;;;7.45;6.05;;;;;;;;;;6303058;28;20462;-74
2021/08/15 13:03:12;;;;;;;7.20;6.55;;;;;;;;;;6296379;28;20044;-75
2021/08/15 13:06:22;;;;;;;8.40;6.22;;;;;;;;;;6289089;28;20052;-75
2021/08/15 13:09:24;;;;;;;7.10;5.32;;;;;;;;;;6277890;28;20059;-74
2021/08/15 13:12:25;;;;;;;9.35;6.00;;;;;;;;;;6276542;28;20079;-74
2021/08/15 13:15:27;;;;;;;8.55;6.30;;;;;;;;;;6278453;28;20064;-74
2021/08/15 13:18:29;;;;;;;8.35;5.65;;;;;;;;;;6278453;28;20142;-75
2021/08/15 13:21:32;;;;;;;10.40;6.10;;;;;;;;;;6272258;28;20085;-74
2021/08/15 13:24:33;;;;;;;11.63;6.32;;;;;;;;;;6287861;28;20102;-73
2021/08/15 13:27:35;;;;;;;9.02;6.45;;;;;;;;;;6280121;28;20052;-75
2021/08/15 13:30:36;;;;;;;;;;;;;;;;;;6276114;28;20037;-76
2021/08/15 13:33:38;;;;;;;16.63;6.57;;;;;;;;;;6284147;28;20044;-78
2021/08/15 13:36:41;;;;;;;12.18;6.15;;;;;;;;;;6292304;28;20174;-74
2021/08/15 13:39:42;;;;;;;11.90;5.85;;;;;;;;;;6287857;28;20733;-75
2021/08/15 13:42:44;;;;;;;;;;;;;;;;;;6281457;28;20167;-75
2021/08/15 13:45:45;;;;;;;9.93;5.80;;;;;;;;;;6271326;28;20054;-75
2021/08/15 13:48:47;;;;;;;12.32;6.43;;;;;;;;;;6285882;28;20447;-74
2021/08/15 13:51:50;;;;;;;11.35;6.10;;;;;;;;;;6299849;28;20040;-76
2021/08/15 13:54:52;;;;;;;11.15;5.72;;;;;;;;;;6315552;28;20046;-74
2021/08/15 13:57:54;;;;;;;10.82;5.68;;;;;;;;;;6307271;28;20032;-78
2021/08/15 14:00:55;;;;;;;;;;;;;;;;;;6301968;28;20483;-74
2021/08/15 14:03:57;;;;;;;12.50;5.97;;;;;;;;;;6306333;28;20018;-75
2021/08/15 14:07:00;;;;;;;9.50;5.22;;;;;;;;;;6298450;28;20048;-79
2021/08/15 14:10:02;;;;;;;10.73;5.10;;;;;;;;;;6304701;28;20121;-74
2021/08/15 14:13:04;;;;;;;11.95;5.45;;;;;;;;;;6296174;28;20044;-73
2021/08/15 14:16:06;;;;;;;;;;;;;;;;;;6282019;28;20048;-78
2021/08/15 14:19:07;;;;;;;13.77;5.70;;;;;;;;;;6301086;28;20053;-73
2021/08/15 14:22:10;;;;;;;10.48;5.00;;;;;;;;;;6297216;28;20056;-77
2021/08/15 14:25:13;;;;;;;8.23;5.25;;;;;;;;;;6299364;28;20056;-79
2021/08/15 14:28:14;;;;;;;14.38;6.35;;;;;;;;;;6304339;28;21889;-75
2021/08/15 14:31:16;;;;;;;9.70;5.20;;;;;;;;;;6292067;28;20041;-75
2021/08/15 14:34:18;;;;;;;12.73;4.78;;;;;;;;;;6309143;28;20033;-74
2021/08/15 14:37:21;;;;;;;7.10;4.68;;;;;;;;;;6302720;28;20056;-73
2021/08/15 14:40:22;;;;;;;10.98;5.60;;;;;;;;;;6305361;28;20040;-79
2021/08/15 14:43:24;;;;;;;12.38;5.55;;;;;;;;;;6311720;28;20703;-74
2021/08/15 14:46:25;;;;;;;9.55;5.20;;;;;;;;;;6297731;28;20693;-73
2021/08/15 14:49:27;;;;;;;8.45;5.15;;;;;;;;;;6311922;28;20092;-73
2021/08/15 14:52:30;;;;;;;8.32;5.38;;;;;;;;;;6281125;28;20036;-73
2021/08/15 14:55:32;;;;;;;9.43;5.60;;;;;;;;;;6299111;27;20214;-71
2021/08/15 14:58:33;;;;;;;10.75;5.10;;;;;;;;;;6307164;28;20060;-73
2021/08/15 15:01:35;;;;;;;10.52;5.78;;;;;;;;;;6277008;28;20199;-73
2021/08/15 15:04:37;;;;;;;10.93;5.20;;;;;;;;;;6290640;28;20048;-72
2021/08/15 15:07:40;;;;;;;10.23;5.05;;;;;;;;;;6279881;28;20135;-72
2021/08/15 15:10:42;;;;;;;11.60;5.25;;;;;;;;;;6279208;28;20493;-75
2021/08/15 15:13:43;;;;;;;;;;;;;;;;;;6286513;28;20059;-73
2021/08/15 15:16:45;;;;;;;12.85;6.05;;;;;;;;;;6266360;28;19924;-73
2021/08/15 15:19:46;;;;;;;12.07;6.28;;;;;;;;;;6307559;28;20044;-73
2021/08/15 15:22:49;;;;;;;11.32;5.88;;;;;;;;;;6300963;28;20075;-74
2021/08/15 15:25:51;;;;;;;11.52;6.45;;;;;;;;;;6303305;28;20483;-74
2021/08/15 15:28:52;;;;;;;13.80;6.53;;;;;;;;;;6311833;28;20635;-74
2021/08/15 15:31:54;;;;;;;14.77;5.63;;;;;;;;;;6295384;28;20040;-78
2021/08/15 15:34:56;;;;;;;;;;;;;;;;;;6311429;28;20150;-77
2021/08/15 15:38:00;;;;;;;15.23;5.53;;;;;;;;;;6301186;28;19935;-74
2021/08/15 15:41:03;;;;;;;16.02;5.53;;;;;;;;;;6301708;28;20048;-74
2021/08/15 15:44:05;;;;;;;19.48;5.82;;;;;;;;;;6286885;28;20063;-73
2021/08/15 15:47:07;;;;;;;18.92;6.30;;;;;;;;;;6269073;28;20040;-76
2021/08/15 15:50:09;;;;;;;14.38;5.72;;;;;;;;;;6293889;28;20053;-80
2021/08/15 15:53:13;;;;;;;9.95;5.10;;;;;;;;;;6278245;28;20427;-73
2021/08/15 15:56:14;;;;;;;16.85;5.47;;;;;;;;;;6276049;28;20117;-73
2021/08/15 15:59:16;;;;;;;19.27;5.70;;;;;;;;;;6286099;28;20676;-73
2021/08/15 16:02:17;;;;;;;16.75;5.75;;;;;;;;;;6296658;28;20105;-77
2021/08/15 16:05:19;;;;;;;13.15;5.53;;;;;;;;;;6299034;28;20170;-75
2021/08/15 16:08:22;;;;;;;21.38;5.68;;;;;;;;;;6306612;28;20083;-75
2021/08/15 16:11:24;;;;;;;17.60;6.18;;;;;;;;;;6302894;28;20173;-76
2021/08/15 16:14:26;;;;;;;10.95;6.05;;;;;;;;;;6312429;28;20487;-72
2021/08/15 16:17:27;;;;;;;14.80;5.90;;;;;;;;;;6292204;28;20052;-73
2021/08/15 16:20:29;;;;;;;12.05;6.03;;;;;;;;;;6299473;28;20139;-76
2021/08/15 16:23:32;;;;;;;13.77;6.05;;;;;;;;;;6309893;28;20126;-79
2021/08/15 16:26:33;;;;;;;17.17;6.15;;;;;;;;;;6302038;28;20466;-73
2021/08/15 16:29:35;;;;;;;20.97;6.83;;;;;;;;;;6306148;28;20145;-75
2021/08/15 16:32:37;;;;;;;13.30;5.72;;;;;;;;;;6289781;28;20465;-75
2021/08/15 16:35:38;;;;;;;18.90;6.00;;;;;;;;;;6297928;28;20048;-77
2021/08/15 16:38:41;;;;;;;14.90;6.47;;;;;;;;;;6309810;28;20155;-75
2021/08/15 16:41:43;;;;;;;16.65;5.82;;;;;;;;;;6299325;28;20043;-76
2021/08/15 16:44:45;;;;;;;13.53;6.83;;;;;;;;;;6311661;28;20157;-75
2021/08/15 16:47:46;;;;;;;15.45;5.80;;;;;;;;;;6292812;28;20829;-74
2021/08/15 16:50:48;;;;;;;15.17;5.70;;;;;;;;;;6298129;28;20065;-73
2021/08/15 16:53:51;;;;;;;16.93;5.80;;;;;;;;;;6307156;28;20502;-74
2021/08/15 16:56:52;;;;;;;14.38;5.93;;;;;;;;;;6300037;28;20044;-74
2021/08/15 16:59:54;;;;;;;14.57;6.17;;;;;;;;;;6310249;28;20128;-73
2021/08/15 17:02:55;;;;;;;14.80;6.38;;;;;;;;;;6293538;28;20469;-73
2021/08/15 17:05:57;;;;;;;15.87;6.00;;;;;;;;;;6304768;28;20046;-73
2021/08/15 17:09:00;;;;;;;18.67;6.30;;;;;;;;;;6313778;28;20050;-75
2021/08/15 17:12:02;;;;;;;17.70;6.28;;;;;;;;;;6304319;28;20808;-73
2021/08/15 17:15:05;;;;;;;14.57;5.40;;;;;;;;;;6307584;28;20119;-74
2021/08/15 17:18:06;;;;;;;10.73;5.50;;;;;;;;;;6292633;28;20061;-74
2021/08/15 17:21:08;;;;;;;11.00;5.90;;;;;;;;;;6293454;28;20044;-75
2021/08/15 17:24:11;;;;;;;16.83;7.00;;;;;;;;;;6309326;28;20040;-79
2021/08/15 17:27:12;;;;;;;12.98;5.63;;;;;;;;;;6301971;28;20166;-73
2021/08/15 17:30:16;;;;;;;12.50;6.07;;;;;;;;;;6302673;28;20036;-74
2021/08/15 17:33:17;;;;;;;15.02;6.22;;;;;;;;;;6301323;28;20040;-73
2021/08/15 17:36:20;;;;;;;13.85;6.25;;;;;;;;;;6300238;28;20074;-80
2021/08/15 17:39:22;;;;;;;;;;;;;;;;;;6309981;28;20087;-75
2021/08/15 17:42:24;;;;;;;14.93;5.68;;;;;;;;;;6300523;28;20018;-75
2021/08/15 17:45:25;;;;;;;23.80;7.60;;;;;;;;;;6299607;28;20075;-77
2021/08/15 17:48:27;;;;;;;15.80;6.53;;;;;;;;;;6302546;28;20044;-73
2021/08/15 17:51:29;;;;;;;13.48;6.30;;;;;;;;;;6300792;28;20204;-75
2021/08/15 17:54:32;;;;;;;17.45;6.53;;;;;;;;;;6309835;28;20068;-76
2021/08/15 17:57:33;;;;;;;17.65;7.60;;;;;;;;;;6301535;28;20096;-73
2021/08/15 18:00:35;;;;;;;16.63;7.27;;;;;;;;;;6295931;28;20670;-74
2021/08/15 18:03:37;;;;;;;22.15;7.18;;;;;;;;;;6297707;28;20470;-74
2021/08/15 18:06:40;;;;;;;26.73;8.25;;;;;;;;;;6295341;28;20081;-73
2021/08/15 18:09:44;;;;;;;25.77;8.23;;;;;;;;;;6305815;28;20064;-73
2021/08/15 18:12:46;;;;;;;29.73;8.63;;;;;;;;;;6297672;28;20097;-73
2021/08/15 18:15:47;;;;;;;28.52;8.43;;;;;;;;;;6295210;28;20097;-73
2021/08/15 18:18:49;;;;;;;28.73;8.70;;;;;;;;;;6301140;28;20048;-72
2021/08/15 18:21:50;;;;;;;28.25;7.50;;;;;;;;;;6296567;28;20040;-73
2021/08/15 18:24:53;;;;;;;39.53;8.43;;;;;;;;;;6311099;28;20082;-73
2021/08/15 18:27:56;;;;;;;28.10;7.18;;;;;;;;;;6297198;28;20052;-75
2021/08/15 18:30:57;;;;;;;21.60;6.68;;;;;;;;;;6298342;28;20047;-74
2021/08/15 18:34:00;;;;;;;32.92;8.35;;;;;;;;;;6307854;28;20898;-74
2021/08/15 18:37:02;;;;;;;27.13;7.07;;;;;;;;;;6303375;28;20074;-75
2021/08/15 18:40:07;;;;;;;31.73;7.25;;;;;;;;;;6309270;28;20048;-78
2021/08/15 18:43:09;;;;;;;32.92;6.65;;;;;;;;;;6303484;28;20044;-75
2021/08/15 18:46:11;;;;;;;33.30;6.45;;;;;;;;;;6296421;28;20040;-74
2021/08/15 18:49:13;;;;;;;27.95;6.55;;;;;;;;;;6307399;28;20054;-72
2021/08/15 18:52:15;;;;;;;29.73;6.00;;;;;;;;;;6302151;28;20184;-74
2021/08/15 18:55:18;;;;;;;31.42;7.57;;;;;;;;;;6304918;28;20553;-73